Orlando, Florida
Traffic Map
Current Weather Conditions
Orlando, Florida
Clear
Clear
78°
Feels Like: 81°
Wind Chill: 78° Ceiling: Unl
Heat Index: 81° Visibility: 10mi
Dew Point: 76° Wind: 9mph
Humidity: 93% Direction: 290° (WNW)
Pressure: 29.97in Gusts: 0mph
Raw Report DataKORL 300153Z AUTO 29008KT 10SM CLR 26/24 A2997 RMK AO2 SLP150 T02560244
Traffic Incident Summary
Active as of:
Severity:
Category:
InformationThere was an issue retrieving the traffic information for this location. Please try a different location or try again shortly.
Advertisements
Track Severe Weather on mobile